Time;durP1;ratioP1;P1;durP2;ratioP2;P2;SDS_P1;SDS_P2;PMS_P1;PMS_P2;Temp;Humidity;BMP_temperature;BMP_pressure;BME280_temperature;BME280_humidity;BME280_pressure;Samples;Min_cycle;Max_cycle;Signal;HPM_P1;HPM_P2
2022/12/22 03:26:23;;;;;;;16.40;14.52;;;6.80;1.00;;;;;;5033741;28;20218;-82
2022/12/22 03:28:50;;;;;;;19.08;15.50;;;6.80;1.00;;;;;;5029886;28;20242;-82
2022/12/22 03:31:20;;;;;;;17.35;15.40;;;6.80;1.00;;;;;;5030134;28;20217;-82
2022/12/22 03:33:49;;;;;;;16.95;14.02;;;6.90;1.00;;;;;;5026364;28;20261;-82
2022/12/22 03:36:21;;;;;;;19.17;16.50;;;6.90;1.00;;;;;;5030201;28;20241;-81
2022/12/22 03:38:48;;;;;;;18.55;14.50;;;6.80;1.00;;;;;;5031727;28;20313;-81
2022/12/22 03:46:44;;;;;;;16.98;14.30;;;6.80;1.00;;;;;;5011255;28;20718;-82
2022/12/22 03:49:12;;;;;;;15.93;14.32;;;6.90;1.00;;;;;;5030316;28;20227;-84
2022/12/22 03:51:43;;;;;;;17.95;14.65;;;7.00;1.00;;;;;;5035192;28;20232;-82
2022/12/22 03:54:13;;;;;;;20.30;15.57;;;7.00;1.00;;;;;;5023578;28;20242;-84
2022/12/22 03:56:41;;;;;;;18.30;14.63;;;7.00;1.00;;;;;;5013524;28;20278;-83
2022/12/22 03:59:09;;;;;;;18.45;14.90;;;6.90;1.00;;;;;;5024421;28;20239;-80
2022/12/22 04:01:41;;;;;;;18.20;14.60;;;7.00;1.00;;;;;;5020186;28;20238;-81
2022/12/22 04:04:09;;;;;;;19.05;14.93;;;7.00;1.00;;;;;;5023307;28;20238;-81
2022/12/22 04:06:50;;;;;;;17.67;14.75;;;7.00;1.00;;;;;;5024716;28;20238;-83
2022/12/22 04:09:23;;;;;;;20.20;15.32;;;7.10;1.00;;;;;;5031892;28;20253;-81
2022/12/22 04:14:40;;;;;;;21.30;14.65;;;7.00;1.00;;;;;;5028520;28;21056;-81
2022/12/22 04:17:08;;;;;;;17.35;14.20;;;7.00;1.00;;;;;;5037218;28;20238;-81
2022/12/22 04:19:40;;;;;;;20.55;16.38;;;7.00;1.00;;;;;;5025519;28;20234;-78
2022/12/22 04:22:08;;;;;;;17.50;15.57;;;7.10;1.00;;;;;;5030465;28;20238;-84
2022/12/22 04:24:40;;;;;;;19.85;15.50;;;7.00;1.00;;;;;;5035690;28;20241;-82
2022/12/22 04:27:07;;;;;;;20.10;16.40;;;7.00;1.00;;;;;;5027381;28;20292;-81
2022/12/22 04:29:39;;;;;;;19.38;15.85;;;6.90;1.00;;;;;;5037536;28;20278;-82
2022/12/22 04:32:07;;;;;;;21.10;15.65;;;6.90;1.00;;;;;;5031649;28;20736;-84
2022/12/22 04:34:35;;;;;;;24.33;16.55;;;7.00;1.00;;;;;;5014570;28;20335;-83
2022/12/22 04:37:05;;;;;;;18.95;15.45;;;7.00;1.00;;;;;;5032060;28;20234;-81
2022/12/22 04:39:40;;;;;;;20.85;16.45;;;7.00;1.00;;;;;;5040699;28;20238;-83
2022/12/22 04:42:07;;;;;;;20.00;17.13;;;7.00;1.00;;;;;;5036391;28;20242;-83
2022/12/22 04:44:39;;;;;;;19.90;17.17;;;7.10;1.00;;;;;;5037584;28;21089;-82
2022/12/22 04:47:06;;;;;;;23.63;18.08;;;7.00;1.00;;;;;;5041609;28;20258;-81
2022/12/22 04:49:33;;;;;;;22.13;17.30;;;7.10;1.00;;;;;;5039162;28;20238;-83
2022/12/22 04:52:01;;;;;;;24.90;19.25;;;7.10;1.00;;;;;;5031968;28;20218;-81
2022/12/22 04:54:28;;;;;;;25.83;20.25;;;7.00;1.00;;;;;;5035397;28;20719;-83
2022/12/22 04:57:04;;;;;;;24.15;20.58;;;7.00;1.00;;;;;;5035560;28;20313;-83
2022/12/22 04:59:31;;;;;;;22.75;17.92;;;7.00;1.00;;;;;;5032937;28;20234;-83
2022/12/22 05:02:04;;;;;;;19.05;16.40;;;6.90;1.00;;;;;;5031869;28;20234;-83
2022/12/22 05:04:31;;;;;;;20.33;17.25;;;6.90;1.00;;;;;;5023309;28;20320;-83
2022/12/22 05:07:00;;;;;;;22.42;18.55;;;7.00;1.00;;;;;;5018727;28;20238;-83
2022/12/22 05:09:27;;;;;;;22.38;18.15;;;7.00;1.00;;;;;;5042223;28;20261;-84
2022/12/22 05:12:53;;;;;;;22.55;18.90;;;7.10;1.00;;;;;;5034851;28;20222;-83
2022/12/22 05:14:50;;;;;;;25.40;20.65;;;7.20;1.00;;;;;;5014167;28;20244;-82
2022/12/22 05:17:20;;;;;;;26.10;18.50;;;7.10;1.00;;;;;;5038050;28;20258;-83
2022/12/22 05:19:48;;;;;;;24.05;18.80;;;7.10;1.00;;;;;;5023413;28;20230;-84
2022/12/22 05:22:17;;;;;;;24.00;18.60;;;7.10;1.00;;;;;;5033706;28;20287;-81
2022/12/22 05:24:45;;;;;;;23.02;18.90;;;7.20;1.00;;;;;;5020383;28;20234;-81
2022/12/22 05:27:13;;;;;;;24.38;18.77;;;7.30;1.00;;;;;;5026692;28;20258;-82
2022/12/22 05:29:43;;;;;;;22.55;19.90;;;7.30;1.00;;;;;;5012217;28;20296;-83
2022/12/22 05:32:10;;;;;;;22.00;17.45;;;7.30;1.00;;;;;;5027602;28;20234;-85
2022/12/22 05:34:49;;;;;;;25.10;18.15;;;7.40;1.00;;;;;;5017366;28;20237;-81
2022/12/22 05:37:26;;;;;;;28.27;19.85;;;7.40;1.00;;;;;;5027922;28;20269;-86
2022/12/22 05:39:56;;;;;;;26.15;18.70;;;7.40;1.00;;;;;;5019101;28;20246;-84
2022/12/22 05:42:38;;;;;;;24.17;19.35;;;7.30;1.00;;;;;;5046187;28;20243;-83
2022/12/22 05:45:07;;;;;;;26.15;20.08;;;7.30;1.00;;;;;;5035795;28;20344;-80
2022/12/22 05:47:40;;;;;;;25.23;21.20;;;7.40;1.00;;;;;;5035457;28;20704;-82
2022/12/22 05:50:09;;;;;;;24.80;19.52;;;7.30;1.00;;;;;;5036097;28;20293;-80
2022/12/22 05:52:36;;;;;;;26.67;22.35;;;7.30;1.00;;;;;;5036660;28;20340;-80
2022/12/22 05:55:03;;;;;;;28.30;21.40;;;7.20;1.00;;;;;;5031359;28;21013;-81
2022/12/22 05:57:32;;;;;;;26.02;19.23;;;7.30;1.00;;;;;;5043251;28;20242;-81
2022/12/22 05:59:59;;;;;;;28.63;22.52;;;7.20;1.00;;;;;;5040257;28;20239;-80
2022/12/22 06:02:26;;;;;;;27.40;21.35;;;7.20;1.00;;;;;;5033200;28;20390;-81
2022/12/22 06:04:54;;;;;;;26.98;22.50;;;7.20;1.00;;;;;;5037755;28;20243;-80
2022/12/22 06:07:23;;;;;;;25.52;20.63;;;7.30;1.00;;;;;;5036320;28;20234;-83
2022/12/22 06:09:51;;;;;;;25.13;19.67;;;7.30;1.00;;;;;;5031829;28;20308;-82
2022/12/22 06:12:23;;;;;;;27.50;20.10;;;7.30;1.00;;;;;;5029225;28;20238;-81
2022/12/22 06:14:52;;;;;;;28.63;21.58;;;7.40;1.00;;;;;;5025834;28;20322;-80
2022/12/22 06:17:21;;;;;;;26.35;21.15;;;7.40;1.00;;;;;;5036165;28;21051;-82
2022/12/22 06:19:48;;;;;;;27.65;20.65;;;7.40;1.00;;;;;;5018599;28;20304;-82
2022/12/22 06:22:21;;;;;;;25.08;21.10;;;7.30;1.00;;;;;;5022049;28;20238;-81
2022/12/22 06:24:52;;;;;;;27.85;21.40;;;7.20;1.00;;;;;;4997553;28;20298;-82
2022/12/22 06:27:24;;;;;;;28.17;21.70;;;7.30;1.00;;;;;;5025493;28;20233;-82
2022/12/22 06:29:57;;;;;;;26.15;19.92;;;7.40;1.00;;;;;;5022514;28;20230;-81
2022/12/22 06:32:24;;;;;;;28.60;21.30;;;7.40;1.00;;;;;;5025650;28;20325;-81
2022/12/22 06:34:52;;;;;;;30.08;23.48;;;7.40;1.00;;;;;;5032355;28;20262;-83
2022/12/22 06:37:22;;;;;;;25.83;20.98;;;7.40;1.00;;;;;;5038170;28;20250;-83
2022/12/22 06:39:50;;;;;;;28.33;19.90;;;7.40;1.00;;;;;;5025016;28;20250;-81
2022/12/22 06:45:06;;;;;;;25.77;20.20;;;7.50;1.00;;;;;;5029302;28;20242;-82
2022/12/22 06:47:35;;;;;;;26.08;19.52;;;7.50;1.00;;;;;;5034654;28;20268;-81
2022/12/22 06:50:01;;;;;;;21.98;18.95;;;7.50;1.00;;;;;;5025493;28;20231;-81
2022/12/22 06:52:29;;;;;;;21.33;18.88;;;7.50;1.00;;;;;;5027986;28;20270;-81
2022/12/22 06:55:01;;;;;;;26.25;19.42;;;7.60;1.00;;;;;;5023017;28;20333;-81
2022/12/22 06:57:30;;;;;;;27.17;20.10;;;7.60;1.00;;;;;;5022296;28;20288;-83
2022/12/22 06:59:58;;;;;;;24.67;19.67;;;7.60;1.00;;;;;;5031357;28;20377;-82
2022/12/22 07:02:28;;;;;;;24.95;19.08;;;7.50;1.00;;;;;;5031826;28;20277;-81
2022/12/22 07:04:59;;;;;;;26.13;18.92;;;7.60;1.00;;;;;;5017983;28;21007;-85
2022/12/22 07:07:34;;;;;;;28.17;20.58;;;7.60;1.00;;;;;;5036520;28;20242;-83
2022/12/22 07:10:02;;;;;;;24.02;18.10;;;7.60;1.00;;;;;;5022336;28;20241;-82
2022/12/22 07:12:29;;;;;;;23.20;18.80;;;7.70;1.00;;;;;;5038423;28;20234;-82
2022/12/22 07:15:02;;;;;;;28.88;19.98;;;7.70;1.00;;;;;;5032870;28;20246;-82
2022/12/22 07:17:34;;;;;;;28.42;20.38;;;7.70;1.00;;;;;;5025404;28;20244;-83
2022/12/22 07:20:03;;;;;;;23.88;20.40;;;7.70;1.00;;;;;;4999986;28;20239;-82
2022/12/22 07:22:33;;;;;;;26.70;19.15;;;7.60;1.00;;;;;;5018100;28;20230;-83
2022/12/22 07:25:02;;;;;;;25.60;20.70;;;7.70;1.00;;;;;;5031468;28;20722;-83
2022/12/22 07:27:32;;;;;;;26.27;20.48;;;7.70;1.00;;;;;;5033156;28;20285;-82
2022/12/22 07:30:05;;;;;;;26.45;21.10;;;7.60;1.00;;;;;;5009172;28;20619;-81
2022/12/22 07:32:33;;;;;;;27.45;18.90;;;7.70;1.00;;;;;;5019740;28;20288;-85
2022/12/22 07:35:02;;;;;;;28.43;21.00;;;7.70;1.00;;;;;;5025264;28;20252;-81
2022/12/22 07:37:43;;;;;;;26.85;19.48;;;7.70;1.00;;;;;;5017549;28;20516;-82
2022/12/22 07:40:12;;;;;;;25.83;19.52;;;7.70;1.00;;;;;;5025845;28;20341;-84
2022/12/22 07:42:44;;;;;;;29.45;20.05;;;7.70;1.00;;;;;;5003219;28;20262;-83
2022/12/22 07:45:11;;;;;;;26.95;20.05;;;7.70;1.00;;;;;;5007586;28;21137;-84
2022/12/22 07:47:42;;;;;;;26.50;22.20;;;7.70;1.00;;;;;;5017721;28;20348;-82
2022/12/22 07:50:26;;;;;;;26.27;19.40;;;7.80;1.00;;;;;;5016359;28;20242;-83
2022/12/22 07:52:54;;;;;;;24.25;19.55;;;7.90;1.00;;;;;;5018574;28;20301;-84
2022/12/22 07:55:22;;;;;;;26.70;19.47;;;7.90;1.00;;;;;;5025220;28;20242;-82
2022/12/22 07:57:52;;;;;;;26.38;19.90;;;7.90;1.00;;;;;;4996628;28;20482;-84
2022/12/22 08:00:25;;;;;;;28.33;21.23;;;7.80;1.00;;;;;;5024725;28;20305;-81
2022/12/22 08:03:01;;;;;;;28.88;21.17;;;7.80;1.00;;;;;;5004099;28;21244;-83
2022/12/22 08:05:31;;;;;;;29.50;19.77;;;7.80;1.00;;;;;;5021191;28;20325;-82
2022/12/22 08:08:03;;;;;;;30.52;19.58;;;7.80;1.00;;;;;;5005972;28;20250;-84
2022/12/22 08:10:31;;;;;;;23.35;18.08;;;7.80;1.00;;;;;;5022264;28;20295;-82
2022/12/22 08:13:14;;;;;;;28.92;19.50;;;7.80;1.00;;;;;;5000666;28;20956;-81
2022/12/22 08:15:43;;;;;;;24.83;17.92;;;7.80;1.00;;;;;;4982025;28;20971;-83
2022/12/22 08:18:12;;;;;;;23.10;18.90;;;7.80;1.00;;;;;;5021592;28;20269;-84
2022/12/22 08:21:01;;;;;;;27.40;19.13;;;7.80;1.00;;;;;;5020255;28;20301;-82
2022/12/22 08:23:32;;;;;;;23.05;17.60;;;7.80;1.00;;;;;;5026263;28;20245;-81
2022/12/22 08:26:06;;;;;;;22.58;16.67;;;7.80;1.00;;;;;;4986270;28;20282;-84
2022/12/22 08:28:43;;;;;;;26.20;18.15;;;7.80;1.00;;;;;;5009912;28;20238;-81
2022/12/22 08:31:11;;;;;;;22.25;18.17;;;7.80;1.00;;;;;;5020758;28;20284;-82
2022/12/22 08:33:42;;;;;;;24.92;18.15;;;7.80;1.00;;;;;;5014945;28;20240;-83
2022/12/22 08:36:11;;;;;;;25.67;18.40;;;7.80;1.00;;;;;;5020383;28;20238;-83
2022/12/22 08:38:43;;;;;;;26.00;18.13;;;7.80;1.00;;;;;;5037712;28;20301;-82
2022/12/22 08:41:13;;;;;;;24.90;17.48;;;7.80;1.00;;;;;;5030049;28;20255;-79
2022/12/22 08:43:43;;;;;;;23.65;18.00;;;7.80;1.00;;;;;;5014359;28;20277;-82
2022/12/22 08:46:10;;;;;;;25.30;17.73;;;7.80;1.00;;;;;;5034060;28;20408;-82
2022/12/22 08:48:45;;;;;;;23.10;19.23;;;7.70;1.00;;;;;;5026279;28;20329;-81
2022/12/22 08:51:12;;;;;;;23.40;18.85;;;7.70;1.00;;;;;;5028373;28;20240;-81
2022/12/22 08:53:42;;;;;;;22.40;18.08;;;7.70;1.00;;;;;;5007679;28;20246;-80
2022/12/22 08:56:09;;;;;;;24.85;18.65;;;7.80;1.00;;;;;;5023335;28;20993;-79
2022/12/22 08:58:36;;;;;;;24.48;18.42;;;7.80;1.00;;;;;;5030165;28;20298;-80
2022/12/22 09:01:03;;;;;;;21.40;17.63;;;7.80;1.00;;;;;;5032315;28;20243;-80
2022/12/22 09:03:30;;;;;;;24.30;18.35;;;7.90;1.00;;;;;;5030226;28;20524;-79
2022/12/22 09:06:02;;;;;;;21.20;16.65;;;7.90;1.00;;;;;;5031460;28;20250;-81
2022/12/22 09:08:29;;;;;;;21.65;16.65;;;7.90;1.00;;;;;;5035080;28;20250;-80
2022/12/22 09:11:02;;;;;;;23.02;16.95;;;7.90;1.00;;;;;;5026871;28;20250;-79
2022/12/22 09:13:31;;;;;;;20.27;16.70;;;8.00;1.00;;;;;;5010851;28;20273;-80
2022/12/22 09:16:04;;;;;;;22.88;17.55;;;8.00;1.00;;;;;;4994049;28;20251;-81
2022/12/22 09:18:31;;;;;;;23.13;17.50;;;8.00;1.00;;;;;;5024212;28;20258;-82
2022/12/22 09:21:02;;;;;;;24.15;18.30;;;8.10;1.00;;;;;;5031537;28;20324;-83
2022/12/22 09:23:34;;;;;;;20.02;15.93;;;8.10;1.00;;;;;;5020246;28;20269;-80
2022/12/22 09:26:09;;;;;;;21.13;18.07;;;8.10;1.00;;;;;;5032787;28;20338;-80
2022/12/22 09:28:36;;;;;;;22.70;17.60;;;8.10;1.00;;;;;;5030450;28;20540;-80
2022/12/22 09:31:05;;;;;;;22.70;16.50;;;8.10;1.00;;;;;;5026181;28;21026;-79
2022/12/22 09:33:36;;;;;;;20.55;15.40;;;8.10;1.00;;;;;;5031063;28;20221;-81
2022/12/22 09:36:07;;;;;;;21.38;16.73;;;8.10;1.00;;;;;;5030516;28;20234;-80
2022/12/22 09:38:38;;;;;;;19.90;16.58;;;8.10;1.00;;;;;;5028075;28;20246;-83
2022/12/22 09:41:09;;;;;;;22.63;17.35;;;8.00;1.00;;;;;;5033067;28;20239;-83
2022/12/22 09:43:38;;;;;;;21.45;17.27;;;8.00;1.00;;;;;;5032336;28;20289;-82
2022/12/22 09:46:06;;;;;;;21.13;17.73;;;8.10;1.00;;;;;;5032824;28;20271;-80
2022/12/22 09:48:40;;;;;;;25.73;17.25;;;8.20;1.00;;;;;;5031474;28;20713;-82
2022/12/22 09:51:13;;;;;;;20.00;16.98;;;8.20;1.00;;;;;;5038376;28;20265;-83
2022/12/22 09:53:43;;;;;;;22.50;16.65;;;8.20;1.00;;;;;;5035708;28;20238;-82
2022/12/22 09:56:14;;;;;;;20.60;17.20;;;8.20;1.00;;;;;;5041174;28;20245;-80
2022/12/22 09:58:54;;;;;;;20.58;16.92;;;8.20;1.00;;;;;;5050900;28;20425;-84
2022/12/22 10:01:36;;;;;;;20.97;16.60;;;8.20;1.00;;;;;;5039943;28;20222;-82
2022/12/22 10:04:15;;;;;;;23.35;17.75;;;8.30;1.00;;;;;;5012720;28;20432;-82
2022/12/22 10:06:52;;;;;;;20.63;16.13;;;8.30;1.00;;;;;;5039025;28;20248;-80
2022/12/22 10:09:29;;;;;;;19.00;16.50;;;8.30;1.00;;;;;;5035897;28;20227;-79
2022/12/22 10:12:05;;;;;;;21.20;16.97;;;8.30;1.00;;;;;;5041525;28;20887;-81
2022/12/22 10:14:35;;;;;;;22.40;17.63;;;8.30;1.00;;;;;;5044923;28;20516;-82
2022/12/22 10:17:26;;;;;;;20.02;17.33;;;8.30;1.00;;;;;;5037483;28;20442;-81
2022/12/22 10:20:06;;;;;;;22.50;16.40;;;8.40;1.00;;;;;;5031516;28;20234;-81
2022/12/22 10:22:35;;;;;;;18.43;16.33;;;8.40;1.00;;;;;;5036963;28;20539;-83
2022/12/22 10:25:26;;;;;;;20.37;16.60;;;8.40;1.00;;;;;;5035998;28;20454;-82
2022/12/22 10:28:01;;;;;;;20.48;17.60;;;8.50;1.00;;;;;;5036777;28;20469;-80
2022/12/22 10:30:32;;;;;;;22.17;16.03;;;8.60;1.00;;;;;;5033172;28;20234;-85
2022/12/22 10:33:08;;;;;;;19.07;15.77;;;8.50;1.00;;;;;;5033737;28;21309;-84
2022/12/22 10:35:51;;;;;;;19.80;15.03;;;8.60;1.00;;;;;;5035395;28;20466;-83
2022/12/22 10:38:31;;;;;;;20.00;15.52;;;8.60;1.00;;;;;;5035369;28;20472;-83
2022/12/22 10:41:21;;;;;;;18.92;14.88;;;8.60;1.00;;;;;;5032539;28;20237;-85
2022/12/22 10:43:51;;;;;;;20.35;16.00;;;8.60;1.00;;;;;;5026786;28;20239;-83
2022/12/22 10:46:41;;;;;;;18.75;14.85;;;8.60;1.00;;;;;;5043119;28;20235;-83
2022/12/22 10:49:16;;;;;;;20.73;15.93;;;8.70;1.00;;;;;;5029190;28;21001;-84
2022/12/22 10:51:45;;;;;;;21.27;16.17;;;8.70;1.00;;;;;;5035647;28;20452;-83
2022/12/22 10:54:31;;;;;;;17.80;15.30;;;8.70;1.00;;;;;;5033673;28;20460;-82
2022/12/22 10:57:06;;;;;;;20.27;16.37;;;8.80;1.00;;;;;;5032669;28;20507;-84
2022/12/22 10:59:34;;;;;;;17.40;15.50;;;8.80;1.00;;;;;;5033204;28;20477;-82
2022/12/22 11:02:27;;;;;;;19.00;15.50;;;8.90;1.00;;;;;;5040352;28;20450;-83
2022/12/22 11:05:02;;;;;;;21.27;15.90;;;9.00;1.00;;;;;;5028354;28;20509;-83
2022/12/22 11:07:34;;;;;;;17.60;14.73;;;9.10;1.00;;;;;;5036353;28;20548;-84
2022/12/22 11:10:16;;;;;;;15.70;12.37;;;9.10;1.00;;;;;;5035765;28;20443;-82
2022/12/22 11:13:22;;;;;;;20.90;15.17;;;9.10;1.00;;;;;;5038441;28;20606;-84
2022/12/22 11:19:03;;;;;;;18.97;15.40;;;9.10;1.00;;;;;;5042396;28;20446;-83
2022/12/22 11:21:43;;;;;;;17.93;15.20;;;9.10;1.00;;;;;;5030135;28;20450;-82
2022/12/22 11:24:24;;;;;;;16.53;13.80;;;9.10;1.00;;;;;;5031159;28;20434;-84
2022/12/22 11:27:12;;;;;;;18.80;14.57;;;9.10;1.00;;;;;;5034913;28;21015;-83
2022/12/22 11:30:08;;;;;;;15.97;14.13;;;9.10;1.00;;;;;;5037923;28;20461;-82
2022/12/22 11:33:12;;;;;;;16.60;14.50;;;9.20;1.00;;;;;;5035969;28;20479;-81
2022/12/22 11:35:53;;;;;;;17.40;13.73;;;9.20;1.00;;;;;;5030237;28;20480;-83
2022/12/22 11:38:44;;;;;;;21.93;15.40;;;9.20;1.00;;;;;;5034297;28;20425;-83
2022/12/22 11:41:42;;;;;;;16.90;13.73;;;9.30;1.00;;;;;;5015146;28;21115;-83
2022/12/22 11:44:48;;;;;;;17.67;14.10;;;9.40;1.00;;;;;;5031217;28;21270;-84
2022/12/22 11:47:35;;;;;;;16.00;13.23;;;9.40;1.00;;;;;;5038137;28;20431;-83
2022/12/22 11:50:28;;;;;;;16.97;13.87;;;9.50;1.00;;;;;;5032015;28;20420;-85
2022/12/22 11:53:14;;;;;;;16.20;12.97;;;9.60;1.00;;;;;;5025237;28;20480;-85
2022/12/22 11:56:03;;;;;;;14.83;13.23;;;9.70;1.00;;;;;;5034276;28;20445;-84
2022/12/22 11:59:05;;;;;;;14.40;12.90;;;9.70;1.00;;;;;;5034389;28;20436;-86
2022/12/22 12:02:03;;;;;;;19.47;14.97;;;9.60;1.00;;;;;;5036969;28;20495;-83
2022/12/22 12:05:07;;;;;;;14.10;12.57;;;9.70;1.00;;;;;;5006000;28;20468;-83
2022/12/22 12:07:42;;;;;;;13.80;12.33;;;9.70;1.00;;;;;;5019022;28;20477;-83
2022/12/22 12:10:23;;;;;;;14.90;13.27;;;9.70;1.00;;;;;;5025121;28;20610;-84
2022/12/22 12:13:05;;;;;;;16.70;14.73;;;9.70;1.00;;;;;;5038549;28;20892;-81
2022/12/22 12:15:45;;;;;;;15.10;12.53;;;9.80;1.00;;;;;;5034009;28;20987;-84
2022/12/22 12:18:52;;;;;;;14.20;12.77;;;9.90;1.00;;;;;;5035966;28;21392;-82
2022/12/22 12:21:52;;;;;;;15.60;13.10;;;9.90;1.00;;;;;;5035027;28;20422;-85
2022/12/22 12:24:42;;;;;;;14.13;12.20;;;9.90;1.00;;;;;;5037964;28;20622;-85
2022/12/22 12:27:32;;;;;;;15.77;13.60;;;9.90;1.00;;;;;;5036045;28;20469;-85
2022/12/22 12:33:45;;;;;;;17.17;14.27;;;9.90;1.00;;;;;;5035923;28;20470;-87
2022/12/22 12:36:32;;;;;;;15.97;14.30;;;9.90;1.00;;;;;;5037521;28;20472;-84
2022/12/22 12:39:31;;;;;;;41.40;37.23;;;9.90;1.00;;;;;;5035144;28;20413;-86
2022/12/22 12:42:23;;;;;;;15.07;13.33;;;9.90;1.00;;;;;;5035921;28;20465;-85
2022/12/22 12:45:04;;;;;;;15.93;14.23;;;9.90;1.00;;;;;;5035004;28;20553;-84
2022/12/22 12:47:45;;;;;;;15.20;12.53;;;9.90;1.00;;;;;;5033587;28;20533;-86
2022/12/22 12:50:35;;;;;;;15.07;12.53;;;9.90;1.00;;;;;;5017252;28;21085;-84
2022/12/22 12:53:08;;;;;;;14.93;13.30;;;9.90;1.00;;;;;;5038953;28;20427;-83
2022/12/22 12:56:06;;;;;;;15.30;13.70;;;9.90;1.00;;;;;;5031187;28;20456;-85
2022/12/22 12:58:53;;;;;;;16.23;13.40;;;9.80;1.00;;;;;;5033538;28;20462;-85
2022/12/22 13:01:55;;;;;;;16.10;13.00;;;9.80;1.00;;;;;;5023986;28;20552;-83
2022/12/22 13:05:05;;;;;;;16.30;13.73;;;9.90;1.00;;;;;;5024221;28;20514;-80
2022/12/22 13:08:07;;;;;;;15.47;13.50;;;9.90;1.00;;;;;;5001836;28;20449;-84
2022/12/22 13:10:43;;;;;;;16.47;14.03;;;9.90;1.00;;;;;;5030287;28;20485;-84
2022/12/22 13:13:15;;;;;;;17.90;14.77;;;9.90;1.00;;;;;;5027926;28;20551;-83
2022/12/22 13:15:44;;;;;;;15.27;13.67;;;9.90;1.00;;;;;;5021384;28;20448;-81
2022/12/22 13:18:42;;;;;;;17.33;14.07;;;9.90;1.00;;;;;;5033793;28;20461;-79
2022/12/22 13:21:25;;;;;;;15.30;13.70;;;9.90;1.00;;;;;;5033295;28;20457;-80
2022/12/22 13:24:11;;;;;;;15.33;13.70;;;9.90;1.00;;;;;;5025321;28;20655;-81
2022/12/22 13:26:47;;;;;;;17.03;14.93;;;10.00;1.00;;;;;;5032173;28;20448;-80
2022/12/22 13:29:27;;;;;;;13.43;11.97;;;10.00;1.00;;;;;;5032005;28;20449;-79
2022/12/22 13:32:03;;;;;;;15.03;13.17;;;10.00;1.00;;;;;;5029811;28;20444;-83
2022/12/22 13:34:46;;;;;;;16.00;13.70;;;10.00;1.00;;;;;;5042393;28;20954;-82
2022/12/22 13:37:22;;;;;;;14.77;12.53;;;10.00;1.00;;;;;;5036415;28;20498;-82
2022/12/22 13:40:11;;;;;;;13.70;12.30;;;10.00;1.00;;;;;;5037083;28;20569;-82
2022/12/22 13:42:48;;;;;;;14.57;11.57;;;9.90;1.00;;;;;;5033885;28;20465;-82
2022/12/22 13:45:32;;;;;;;14.10;12.40;;;9.90;1.00;;;;;;5035166;28;20417;-81
2022/12/22 13:48:11;;;;;;;15.30;13.63;;;9.80;1.00;;;;;;5034072;28;20437;-82
2022/12/22 13:50:50;;;;;;;15.70;13.20;;;9.90;1.00;;;;;;5032887;28;20456;-82
2022/12/22 13:53:33;;;;;;;15.33;13.73;;;9.90;1.00;;;;;;5032214;28;20418;-84
2022/12/22 13:56:06;;;;;;;16.70;13.63;;;9.90;1.00;;;;;;5036857;28;20442;-84
2022/12/22 13:58:46;;;;;;;15.47;12.40;;;9.90;1.00;;;;;;5032826;28;20489;-82
2022/12/22 14:01:24;;;;;;;13.87;12.37;;;9.90;1.00;;;;;;5031940;28;21344;-84
2022/12/22 14:03:56;;;;;;;17.97;14.30;;;9.80;1.00;;;;;;5025461;28;20422;-81
2022/12/22 14:06:28;;;;;;;15.97;14.27;;;9.80;1.00;;;;;;5020621;28;20602;-81
2022/12/22 14:09:10;;;;;;;15.70;13.60;;;9.80;1.00;;;;;;5036040;28;20501;-81
2022/12/22 14:11:45;;;;;;;15.93;14.23;;;9.80;1.00;;;;;;5033111;28;20465;-81
2022/12/22 14:14:23;;;;;;;16.93;14.77;;;9.80;1.00;;;;;;5036268;28;20425;-82
2022/12/22 14:16:52;;;;;;;16.30;14.60;;;9.80;1.00;;;;;;5032654;28;20466;-84
2022/12/22 14:19:25;;;;;;;20.97;15.77;;;9.90;1.00;;;;;;5033728;28;20430;-86
2022/12/22 14:22:08;;;;;;;16.83;15.00;;;9.90;1.00;;;;;;5025731;28;20435;-79
2022/12/22 14:24:45;;;;;;;16.20;14.47;;;9.90;1.00;;;;;;5029245;28;20430;-79
2022/12/22 14:27:31;;;;;;;22.00;14.90;;;9.90;1.00;;;;;;5026516;28;20461;-77
2022/12/22 14:30:04;;;;;;;15.20;13.60;;;9.80;1.00;;;;;;5025969;28;20462;-79
2022/12/22 14:32:44;;;;;;;16.27;13.70;;;9.80;1.00;;;;;;5022207;28;22042;-78
2022/12/22 14:35:25;;;;;;;18.33;12.80;;;9.70;1.00;;;;;;5035024;28;20540;-80
2022/12/22 14:37:54;;;;;;;16.77;13.53;;;9.70;1.00;;;;;;5025477;28;20478;-81
2022/12/22 14:40:34;;;;;;;14.27;12.10;;;9.70;1.00;;;;;;5023642;28;21306;-78
2022/12/22 14:43:03;;;;;;;13.50;11.77;;;9.70;1.00;;;;;;5025035;28;22517;-82
2022/12/22 14:45:31;;;;;;;14.37;10.00;;;9.70;1.00;;;;;;5021825;28;20577;-78
2022/12/22 14:47:58;;;;;;;13.17;10.00;;;9.60;1.00;;;;;;5023331;28;20897;-77
2022/12/22 14:50:28;;;;;;;10.97;9.70;;;9.60;1.00;;;;;;5025872;28;20469;-78
2022/12/22 14:52:58;;;;;;;13.03;10.57;;;9.60;1.00;;;;;;5020580;28;20465;-78
2022/12/22 14:55:29;;;;;;;11.80;10.20;;;9.60;1.00;;;;;;5027556;28;21599;-79
2022/12/22 14:57:59;;;;;;;10.33;8.13;;;9.60;1.00;;;;;;5022278;28;20517;-79
2022/12/22 15:00:32;;;;;;;10.77;8.70;;;9.60;1.00;;;;;;5020538;28;20579;-80
2022/12/22 15:03:03;;;;;;;10.00;9.00;;;9.60;1.00;;;;;;5022524;28;20484;-80
2022/12/22 15:05:36;;;;;;;10.53;9.47;;;9.60;1.00;;;;;;5027515;28;20553;-78
2022/12/22 15:08:07;;;;;;;10.20;8.73;;;9.50;1.00;;;;;;5023053;28;20457;-78
2022/12/22 15:10:41;;;;;;;8.60;7.50;;;9.50;1.00;;;;;;5021176;28;20482;-79
2022/12/22 15:13:16;;;;;;;8.87;7.67;;;9.50;1.00;;;;;;5022117;28;21482;-78
2022/12/22 15:15:44;;;;;;;8.10;7.30;;;9.50;1.00;;;;;;5025234;28;20448;-79
2022/12/22 15:18:14;;;;;;;8.17;6.57;;;9.50;1.00;;;;;;5028525;28;21062;-78
2022/12/22 15:20:42;;;;;;;9.05;7.07;;;9.50;1.00;;;;;;5026501;28;21238;-78
2022/12/22 15:23:12;;;;;;;8.40;7.50;;;9.50;1.00;;;;;;5022093;28;20643;-80
2022/12/22 15:25:41;;;;;;;7.00;6.10;;;9.40;1.00;;;;;;5025462;28;20478;-78
2022/12/22 15:28:09;;;;;;;9.10;7.50;;;9.40;1.00;;;;;;5026467;28;21019;-80
2022/12/22 15:30:37;;;;;;;7.60;6.80;;;9.40;1.00;;;;;;5029870;28;20571;-81
2022/12/22 15:33:11;;;;;;;8.63;7.30;;;9.40;1.00;;;;;;5021433;28;20659;-78
2022/12/22 15:35:41;;;;;;;8.50;6.63;;;9.40;1.00;;;;;;5017684;28;20522;-81
2022/12/22 15:38:12;;;;;;;8.53;7.53;;;9.40;1.00;;;;;;5024673;28;21122;-79
2022/12/22 15:40:39;;;;;;;10.23;7.60;;;9.40;1.00;;;;;;5024710;28;20469;-78
2022/12/22 15:43:10;;;;;;;9.40;8.27;;;9.40;1.00;;;;;;5034225;28;20441;-77
2022/12/22 15:45:39;;;;;;;10.10;8.20;;;9.40;1.00;;;;;;5039894;28;21276;-77
2022/12/22 15:48:53;;;;;;;9.43;8.53;;;9.40;1.00;;;;;;5024093;28;20411;-83
2022/12/22 15:51:26;;;;;;;11.60;9.80;;;9.40;1.00;;;;;;4983498;28;20454;-81
2022/12/22 15:53:54;;;;;;;10.88;9.57;;;9.40;1.00;;;;;;5028431;28;20549;-81
2022/12/22 15:56:24;;;;;;;12.20;9.40;;;9.40;1.00;;;;;;5029780;28;20242;-82
2022/12/22 15:58:51;;;;;;;12.87;10.07;;;9.40;1.00;;;;;;5024790;28;21293;-83
2022/12/22 16:01:19;;;;;;;11.80;10.52;;;9.30;1.00;;;;;;5024914;28;20477;-81
2022/12/22 16:03:45;;;;;;;14.43;11.67;;;9.30;1.00;;;;;;5032996;28;20265;-84
2022/12/22 16:06:14;;;;;;;12.70;11.20;;;9.30;1.00;;;;;;5026477;28;20569;-80
2022/12/22 16:08:48;;;;;;;14.23;11.80;;;9.30;1.00;;;;;;5028039;28;20517;-79
2022/12/22 16:11:17;;;;;;;13.57;11.38;;;9.30;1.00;;;;;;5027603;28;21289;-83
2022/12/22 16:13:45;;;;;;;13.40;11.70;;;9.20;1.00;;;;;;5033530;28;20253;-84
2022/12/22 16:18:56;;;;;;;12.03;10.80;;;9.10;1.00;;;;;;5029160;28;20470;-81
2022/12/22 16:21:29;;;;;;;14.40;12.40;;;9.10;1.00;;;;;;5037335;28;20453;-82
2022/12/22 16:24:03;;;;;;;13.95;11.77;;;9.10;1.00;;;;;;5030297;28;20531;-82
2022/12/22 16:26:30;;;;;;;14.45;12.07;;;9.10;1.00;;;;;;5032911;28;20707;-81
2022/12/22 16:28:58;;;;;;;15.27;12.63;;;9.00;1.00;;;;;;5032541;28;21073;-82
2022/12/22 16:31:26;;;;;;;20.00;14.93;;;9.00;1.00;;;;;;5032285;28;20254;-83
2022/12/22 16:33:56;;;;;;;19.27;15.20;;;9.00;1.00;;;;;;5029420;28;20249;-83
2022/12/22 16:36:24;;;;;;;16.80;13.73;;;8.90;1.00;;;;;;5028325;28;20226;-81
2022/12/22 16:38:54;;;;;;;15.50;13.60;;;8.90;1.00;;;;;;5025400;28;20461;-82
2022/12/22 16:41:26;;;;;;;19.73;15.97;;;8.90;1.00;;;;;;5028395;28;21999;-80
2022/12/22 16:43:57;;;;;;;21.57;15.70;;;8.90;1.00;;;;;;5023420;28;20486;-82
2022/12/22 16:46:25;;;;;;;18.93;15.27;;;8.90;1.00;;;;;;5012983;28;20517;-81
2022/12/22 16:49:00;;;;;;;18.77;14.85;;;8.80;1.00;;;;;;5028605;28;20457;-82
2022/12/22 16:51:35;;;;;;;17.83;14.13;;;8.80;1.00;;;;;;5026407;28;20325;-78
2022/12/22 16:54:05;;;;;;;19.83;15.10;;;8.80;1.00;;;;;;5026416;28;20453;-81
2022/12/22 16:56:35;;;;;;;19.67;15.32;;;8.80;1.00;;;;;;5025771;28;20563;-79
2022/12/22 16:59:03;;;;;;;15.80;13.23;;;8.70;1.00;;;;;;5028605;28;20326;-79
2022/12/22 17:01:39;;;;;;;21.30;16.90;;;8.70;1.00;;;;;;5033061;28;20269;-80
2022/12/22 17:04:25;;;;;;;18.67;15.17;;;8.60;1.00;;;;;;5036385;28;20257;-80
2022/12/22 17:06:58;;;;;;;19.80;15.60;;;8.50;1.00;;;;;;5031640;28;21193;-80
2022/12/22 17:09:33;;;;;;;20.20;14.38;;;8.50;1.00;;;;;;5033691;28;20497;-80
2022/12/22 17:12:02;;;;;;;20.25;15.52;;;8.40;1.00;;;;;;5030155;28;21028;-79